createdAt,value
2019-04-04T00:00:58.176Z,65.23
2019-04-04T00:01:58.175Z,64.93
2019-04-04T00:02:58.162Z,65.03
2019-04-04T00:03:58.158Z,65.03
2019-04-04T00:04:58.153Z,64.62
2019-04-04T00:05:58.168Z,65.44
2019-04-04T00:06:58.753Z,65.34
2019-04-04T00:08:00.029Z,66.05
2019-04-04T00:08:58.091Z,65.95
2019-04-04T00:09:58.074Z,65.54
2019-04-04T00:10:58.095Z,65.64
2019-04-04T00:11:58.056Z,65.64
2019-04-04T00:12:58.042Z,66.28
2019-04-04T00:13:58.041Z,66.25
2019-04-04T00:14:58.077Z,66.39
2019-04-04T00:15:58.073Z,65.88
2019-04-04T00:16:58.000Z,66.93
2019-04-04T00:17:57.995Z,66.83
2019-04-04T00:18:59.053Z,66.93
2019-04-04T00:20:00.614Z,67.75
2019-04-04T00:20:57.957Z,68.08
2019-04-04T00:21:57.966Z,68.42
2019-04-04T00:22:57.949Z,69.24
2019-04-04T00:23:57.947Z,69.24
2019-04-04T00:24:57.923Z,69.52
2019-04-04T00:25:57.921Z,69.52
2019-04-04T00:26:57.910Z,69.72
2019-04-04T00:27:57.917Z,69.82
2019-04-04T00:28:57.879Z,69.93
2019-04-04T00:29:57.857Z,70.64
2019-04-04T00:30:57.842Z,70.75
2019-04-04T00:31:57.864Z,71.66
2019-04-04T00:32:57.819Z,71.56
2019-04-04T00:33:57.826Z,72.00
2019-04-04T00:34:59.714Z,71.66
2019-04-04T00:35:57.808Z,71.90
2019-04-04T00:36:57.780Z,72.28
2019-04-04T00:37:58.640Z,72.31
2019-04-04T00:38:57.759Z,72.11
2019-04-04T00:39:57.768Z,72.62
2019-04-04T00:40:57.736Z,72.52
2019-04-04T00:41:57.724Z,72.62
2019-04-04T00:42:57.740Z,72.52
2019-04-04T00:43:57.703Z,72.82
2019-04-04T00:44:57.700Z,73.13
2019-04-04T00:46:00.477Z,73.23
2019-04-04T00:46:57.668Z,72.86
2019-04-04T00:47:57.658Z,72.96
2019-04-04T00:48:57.673Z,72.96
2019-04-04T00:49:57.632Z,72.65
2019-04-04T00:50:57.624Z,72.65
2019-04-04T00:51:57.615Z,73.36
2019-04-04T00:52:57.622Z,73.57
2019-04-04T00:53:57.629Z,73.57
2019-04-04T00:54:57.581Z,73.88
2019-04-04T00:55:57.578Z,73.81
2019-04-04T00:56:57.565Z,73.98
2019-04-04T00:57:57.548Z,73.81
2019-04-04T00:58:57.539Z,74.53
2019-04-04T00:59:57.579Z,74.02
2019-04-04T01:00:57.531Z,74.32
2019-04-04T01:01:57.694Z,75.79
2019-04-04T01:02:58.570Z,75.69
2019-04-04T01:04:00.340Z,75.48
2019-04-04T01:04:57.517Z,75.28
2019-04-04T01:05:57.504Z,75.28
2019-04-04T01:06:57.470Z,75.48
2019-04-04T01:07:57.458Z,75.48
2019-04-04T01:08:57.475Z,75.38
2019-04-04T01:09:57.584Z,75.38
2019-04-04T01:10:57.493Z,75.52
2019-04-04T01:11:57.437Z,76.24
2019-04-04T01:12:57.406Z,76.24
2019-04-04T01:13:57.862Z,75.93
2019-04-04T01:14:58.144Z,75.82
2019-04-04T01:15:57.348Z,76.65
2019-04-04T01:16:57.354Z,75.93
2019-04-04T01:17:57.330Z,76.14
2019-04-04T01:18:57.316Z,76.48
2019-04-04T01:19:57.303Z,76.89
2019-04-04T01:20:57.304Z,76.89
2019-04-04T01:21:57.314Z,76.78
2019-04-04T01:22:57.287Z,77.64
2019-04-04T01:23:58.415Z,77.44
2019-04-04T01:24:57.245Z,78.46
2019-04-04T01:25:57.239Z,78.05
2019-04-04T01:26:57.261Z,78.50
2019-04-04T01:27:57.250Z,78.39
2019-04-04T01:28:57.209Z,78.19
2019-04-04T01:29:57.195Z,79.11
2019-04-04T01:30:57.181Z,78.60
2019-04-04T01:31:57.183Z,78.60
2019-04-04T01:32:57.192Z,78.81
2019-04-04T01:33:57.157Z,78.70
2019-04-04T01:34:57.140Z,78.91
2019-04-04T01:35:57.125Z,79.01
2019-04-04T01:36:57.222Z,78.50
2019-04-04T01:37:58.253Z,78.81
2019-04-04T01:38:58.078Z,78.60
2019-04-04T01:39:57.089Z,78.50
2019-04-04T01:40:57.116Z,78.74
2019-04-04T01:41:57.064Z,78.33
2019-04-04T01:42:57.055Z,78.74
2019-04-04T01:44:04.823Z,79.05
2019-04-04T01:44:58.031Z,78.74
2019-04-04T01:45:57.072Z,78.64
2019-04-04T01:46:57.029Z,78.74
2019-04-04T01:47:56.999Z,78.74
2019-04-04T01:48:57.021Z,78.43
2019-04-04T01:49:56.991Z,79.05
2019-04-04T01:50:56.960Z,78.98
2019-04-04T01:51:57.905Z,78.78
2019-04-04T01:52:58.944Z,79.19
2019-04-04T01:53:56.971Z,79.49
2019-04-04T01:54:56.977Z,78.98
2019-04-04T01:55:56.911Z,79.53
2019-04-04T01:56:56.897Z,79.91
2019-04-04T01:57:56.902Z,79.94
2019-04-04T01:58:56.880Z,79.43
2019-04-04T01:59:56.879Z,80.08
2019-04-04T02:00:56.895Z,79.84
2019-04-04T02:01:56.940Z,79.74
2019-04-04T02:02:56.839Z,80.08
2019-04-04T02:03:56.840Z,79.98
2019-04-04T02:04:56.827Z,80.19
2019-04-04T02:05:58.164Z,80.19
2019-04-04T02:06:58.890Z,80.39
2019-04-04T02:07:56.781Z,80.19
2019-04-04T02:08:56.764Z,80.39
2019-04-04T02:09:56.763Z,79.98
2019-04-04T02:10:56.748Z,80.19
2019-04-04T02:11:56.756Z,80.49
2019-04-04T02:12:56.724Z,80.60
2019-04-04T02:13:56.724Z,80.39
2019-04-04T02:14:56.696Z,80.39
2019-04-04T02:15:56.694Z,81.25
2019-04-04T02:16:56.710Z,80.63
2019-04-04T02:17:56.675Z,80.57
2019-04-04T02:18:56.655Z,81.39
2019-04-04T02:19:56.647Z,81.39
2019-04-04T02:20:57.883Z,81.46
2019-04-04T02:21:57.871Z,81.35
2019-04-04T02:22:56.636Z,80.63
2019-04-04T02:23:56.604Z,80.84
2019-04-04T02:24:56.592Z,81.05
2019-04-04T02:25:56.583Z,80.43
2019-04-04T02:26:56.576Z,80.94
2019-04-04T02:27:56.598Z,80.53
2019-04-04T02:28:56.548Z,81.25
2019-04-04T02:29:56.577Z,80.74
2019-04-04T02:30:56.548Z,80.84
2019-04-04T02:31:56.512Z,80.57
2019-04-04T02:32:59.531Z,81.39
2019-04-04T02:33:56.521Z,81.19
2019-04-04T02:34:56.484Z,81.49
2019-04-04T02:35:56.473Z,81.19
2019-04-04T02:36:56.462Z,82.01
2019-04-04T02:37:56.446Z,82.11
2019-04-04T02:38:57.640Z,81.35
2019-04-04T02:39:56.432Z,81.25
2019-04-04T02:40:56.416Z,81.15
2019-04-04T02:41:56.420Z,80.63
2019-04-04T02:42:56.415Z,80.94
2019-04-04T02:43:59.357Z,81.35
2019-04-04T02:44:56.373Z,81.15
2019-04-04T02:45:56.431Z,80.74
2019-04-04T02:46:56.356Z,80.84
2019-04-04T02:47:56.339Z,80.63
2019-04-04T02:48:57.067Z,80.63
2019-04-04T02:50:00.652Z,80.80
2019-04-04T02:50:57.310Z,81.21
2019-04-04T02:51:56.297Z,80.94
2019-04-04T02:52:56.338Z,80.74
2019-04-04T02:53:56.313Z,80.63
2019-04-04T02:54:58.230Z,81.67
2019-04-04T02:55:56.262Z,81.97
2019-04-04T02:56:56.248Z,81.97
2019-04-04T02:57:56.226Z,81.76
2019-04-04T02:58:56.261Z,81.35
2019-04-04T02:59:56.242Z,81.87
2019-04-04T03:00:59.248Z,81.97
2019-04-04T03:01:56.206Z,81.76
2019-04-04T03:02:56.186Z,81.15
2019-04-04T03:03:56.205Z,82.59
2019-04-04T03:04:56.166Z,82.48
2019-04-04T03:05:56.154Z,81.56
2019-04-04T03:06:58.454Z,81.97
2019-04-04T03:07:56.128Z,81.73
2019-04-04T03:08:56.117Z,81.73
2019-04-04T03:09:56.100Z,82.34
2019-04-04T03:10:56.090Z,82.55
2019-04-04T03:11:56.088Z,81.83
2019-04-04T03:12:58.662Z,81.62
2019-04-04T03:13:56.095Z,81.83
2019-04-04T03:14:56.050Z,82.45
2019-04-04T03:15:56.030Z,82.04
2019-04-04T03:16:56.877Z,82.76
2019-04-04T03:17:56.046Z,82.96
2019-04-04T03:18:56.002Z,82.86
2019-04-04T03:19:55.992Z,82.59
2019-04-04T03:20:55.989Z,81.73
2019-04-04T03:21:56.207Z,81.11
2019-04-04T03:23:00.296Z,80.29
2019-04-04T03:23:55.959Z,80.08
2019-04-04T03:24:55.942Z,79.77
2019-04-04T03:25:55.925Z,79.36
2019-04-04T03:26:55.910Z,79.05
2019-04-04T03:27:58.410Z,79.19
2019-04-04T03:28:55.962Z,79.40
2019-04-04T03:29:55.883Z,79.30
2019-04-04T03:31:02.568Z,79.09
2019-04-04T03:31:56.864Z,79.30
2019-04-04T03:32:55.882Z,79.50
2019-04-04T03:33:55.881Z,79.71
2019-04-04T03:34:55.845Z,79.50
2019-04-04T03:35:57.541Z,79.19
2019-04-04T03:36:55.806Z,79.61
2019-04-04T03:37:55.802Z,79.91
2019-04-04T03:38:55.836Z,79.81
2019-04-04T03:39:55.806Z,80.02
2019-04-04T03:40:57.889Z,79.50
2019-04-04T03:41:55.767Z,79.71
2019-04-04T03:42:55.747Z,79.61
2019-04-04T03:43:55.727Z,79.71
2019-04-04T03:44:55.717Z,79.91
2019-04-04T03:46:00.321Z,80.02
2019-04-04T03:46:56.696Z,79.81
2019-04-04T03:47:55.684Z,79.40
2019-04-04T03:48:55.688Z,79.71
2019-04-04T03:49:57.624Z,79.67
2019-04-04T03:50:57.407Z,79.05
2019-04-04T03:51:55.645Z,78.64
2019-04-04T03:52:55.632Z,78.44
2019-04-04T03:53:55.626Z,78.54
2019-04-04T03:54:56.541Z,79.16
2019-04-04T03:56:00.223Z,78.96
2019-04-04T03:56:56.597Z,78.44
2019-04-04T03:57:55.569Z,78.03
2019-04-04T03:58:59.849Z,78.33
2019-04-04T03:59:55.544Z,78.40
2019-04-04T04:00:55.540Z,78.30
2019-04-04T04:01:55.564Z,78.40
2019-04-04T04:02:55.525Z,78.50
2019-04-04T04:03:55.775Z,78.50
2019-04-04T04:05:00.618Z,78.03
2019-04-04T04:05:56.495Z,78.50
2019-04-04T04:06:55.467Z,77.89
2019-04-04T04:07:55.492Z,78.61
2019-04-04T04:08:55.465Z,77.78
2019-04-04T04:09:59.343Z,77.99
2019-04-04T04:10:55.431Z,78.09
2019-04-04T04:11:55.413Z,77.99
2019-04-04T04:12:55.434Z,78.13
2019-04-04T04:13:55.389Z,78.09
2019-04-04T04:14:55.414Z,78.64
2019-04-04T04:15:55.370Z,78.30
2019-04-04T04:16:55.450Z,78.61
2019-04-04T04:17:55.348Z,78.50
2019-04-04T04:18:55.538Z,78.20
2019-04-04T04:19:55.335Z,77.89
2019-04-04T04:20:55.311Z,77.68
2019-04-04T04:21:55.304Z,78.09
2019-04-04T04:22:55.289Z,78.30
2019-04-04T04:23:57.021Z,78.61
2019-04-04T04:24:55.283Z,77.99
2019-04-04T04:25:55.261Z,78.50
2019-04-04T04:26:55.246Z,77.68
2019-04-04T04:27:55.242Z,77.37
2019-04-04T04:28:55.227Z,78.20
2019-04-04T04:29:55.242Z,77.58
2019-04-04T04:30:55.203Z,78.09
2019-04-04T04:31:55.195Z,78.50
2019-04-04T04:32:57.029Z,78.64
2019-04-04T04:33:55.174Z,78.92
2019-04-04T04:34:55.194Z,78.64
2019-04-04T04:35:55.156Z,78.92
2019-04-04T04:36:55.140Z,78.92
2019-04-04T04:37:55.135Z,78.92
2019-04-04T04:38:58.830Z,78.30
2019-04-04T04:39:55.149Z,79.02
2019-04-04T04:40:55.118Z,79.12
2019-04-04T04:41:55.079Z,79.33
2019-04-04T04:42:55.077Z,79.02
2019-04-04T04:43:55.061Z,78.92
2019-04-04T04:44:55.043Z,79.12
2019-04-04T04:45:55.064Z,79.12
2019-04-04T04:46:55.027Z,79.12
2019-04-04T04:47:57.090Z,79.02
2019-04-04T04:48:55.007Z,78.81
2019-04-04T04:49:55.597Z,79.05
2019-04-04T04:50:54.981Z,78.40
2019-04-04T04:51:55.020Z,79.12
2019-04-04T04:52:54.966Z,79.53
2019-04-04T04:53:54.954Z,79.26
2019-04-04T04:54:55.546Z,79.12
2019-04-04T04:55:54.946Z,79.53
2019-04-04T04:56:54.944Z,79.84
2019-04-04T04:57:56.476Z,79.98
2019-04-04T04:58:55.621Z,80.08
2019-04-04T04:59:54.876Z,79.67
2019-04-04T05:00:54.870Z,79.98
2019-04-04T05:01:54.870Z,81.11
2019-04-04T05:02:54.867Z,80.39
2019-04-04T05:03:56.558Z,79.67
2019-04-04T05:04:54.823Z,79.88
2019-04-04T05:05:54.828Z,79.77
2019-04-04T05:06:54.800Z,79.84
2019-04-04T05:07:55.144Z,79.74
2019-04-04T05:08:54.777Z,79.63
2019-04-04T05:09:54.764Z,79.57
2019-04-04T05:10:54.763Z,79.98
2019-04-04T05:11:54.750Z,79.47
2019-04-04T05:12:54.750Z,78.54
2019-04-04T05:13:56.051Z,78.44
2019-04-04T05:14:54.715Z,78.64
2019-04-04T05:15:54.722Z,78.64
2019-04-04T05:16:54.691Z,78.54
2019-04-04T05:17:54.683Z,78.54
2019-04-04T05:18:54.708Z,79.16
2019-04-04T05:19:54.658Z,78.75
2019-04-04T05:20:57.270Z,79.36
2019-04-04T05:21:54.634Z,79.98
2019-04-04T05:22:54.629Z,79.88
2019-04-04T05:23:54.639Z,79.26
2019-04-04T05:25:07.457Z,79.47
2019-04-04T05:25:55.598Z,79.98
2019-04-04T05:26:54.584Z,79.88
2019-04-04T05:27:54.573Z,79.81
2019-04-04T05:28:56.932Z,80.02
2019-04-04T05:29:54.608Z,79.71
2019-04-04T05:30:54.580Z,79.91
2019-04-04T05:31:54.545Z,79.71
2019-04-04T05:32:56.410Z,79.71
2019-04-04T05:33:54.525Z,80.22
2019-04-04T05:34:54.490Z,80.33
2019-04-04T05:35:54.494Z,79.67
2019-04-04T05:36:54.546Z,79.61
2019-04-04T05:37:54.455Z,79.57
2019-04-04T05:38:54.474Z,79.05
2019-04-04T05:39:55.362Z,79.26
2019-04-04T05:40:55.411Z,78.44
2019-04-04T05:41:54.414Z,79.05
2019-04-04T05:42:54.417Z,79.16
2019-04-04T05:43:54.394Z,78.96
2019-04-04T05:44:54.381Z,79.05
2019-04-04T05:45:54.409Z,79.12
2019-04-04T05:46:54.358Z,78.54
2019-04-04T05:47:55.924Z,78.75
2019-04-04T05:48:54.340Z,77.92
2019-04-04T05:49:54.335Z,78.54
2019-04-04T05:50:54.387Z,79.16
2019-04-04T05:51:54.327Z,79.05
2019-04-04T05:52:54.309Z,78.54
2019-04-04T05:53:54.287Z,78.44
2019-04-04T05:54:54.273Z,79.02
2019-04-04T05:55:54.260Z,78.61
2019-04-04T05:56:54.288Z,77.92
2019-04-04T05:57:54.264Z,78.30
2019-04-04T05:58:54.233Z,78.40
2019-04-04T05:59:55.952Z,78.54
2019-04-04T06:00:54.206Z,78.50
2019-04-04T06:01:54.249Z,78.61
2019-04-04T06:02:54.197Z,77.72
2019-04-04T06:03:54.192Z,78.75
2019-04-04T06:04:55.433Z,78.44
2019-04-04T06:05:54.149Z,78.03
2019-04-04T06:06:55.582Z,78.64
2019-04-04T06:07:54.162Z,79.05
2019-04-04T06:08:54.116Z,78.85
2019-04-04T06:09:54.108Z,78.99
2019-04-04T06:10:54.101Z,78.96
2019-04-04T06:11:54.089Z,78.85
2019-04-04T06:12:54.371Z,79.05
2019-04-04T06:13:54.064Z,78.64
2019-04-04T06:14:54.060Z,77.82
2019-04-04T06:15:54.048Z,77.78
2019-04-04T06:16:54.026Z,77.82
2019-04-04T06:17:54.017Z,78.40
2019-04-04T06:18:54.023Z,77.17
2019-04-04T06:19:53.998Z,77.89
2019-04-04T06:20:53.987Z,78.20
2019-04-04T06:21:53.980Z,78.20
2019-04-04T06:22:53.963Z,77.51
2019-04-04T06:23:56.004Z,77.89
2019-04-04T06:24:53.948Z,77.82
2019-04-04T06:25:53.926Z,77.51
2019-04-04T06:26:53.919Z,77.62
2019-04-04T06:27:53.915Z,78.13
2019-04-04T06:28:53.912Z,78.54
2019-04-04T06:29:53.900Z,78.64
2019-04-04T06:30:54.416Z,78.03
2019-04-04T06:31:53.866Z,78.03
2019-04-04T06:32:53.888Z,78.13
2019-04-04T06:33:53.851Z,77.82
2019-04-04T06:34:56.545Z,77.82
2019-04-04T06:35:53.824Z,78.33
2019-04-04T06:36:53.818Z,78.71
2019-04-04T06:37:53.798Z,77.78
2019-04-04T06:38:54.130Z,77.78
2019-04-04T06:39:54.457Z,76.65
2019-04-04T06:40:53.765Z,77.17
2019-04-04T06:41:53.758Z,77.89
2019-04-04T06:42:53.779Z,77.99
2019-04-04T06:43:53.740Z,78.40
2019-04-04T06:44:54.310Z,77.99
2019-04-04T06:45:53.713Z,77.48
2019-04-04T06:46:54.215Z,76.62
2019-04-04T06:47:55.251Z,77.85
2019-04-04T06:48:53.680Z,77.44
2019-04-04T06:49:53.678Z,76.31
2019-04-04T06:50:53.693Z,77.44
2019-04-04T06:51:53.647Z,76.62
2019-04-04T06:52:56.399Z,76.31
2019-04-04T06:53:54.448Z,75.90
2019-04-04T06:54:55.287Z,76.21
2019-04-04T06:55:53.597Z,76.51
2019-04-04T06:56:53.599Z,76.35
2019-04-04T06:57:53.583Z,76.42
2019-04-04T06:58:53.624Z,76.76
2019-04-04T06:59:53.555Z,76.97
2019-04-04T07:00:53.557Z,77.58
2019-04-04T07:01:53.542Z,77.13
2019-04-04T07:02:56.073Z,76.62
2019-04-04T07:03:53.511Z,76.10
2019-04-04T07:04:53.523Z,76.31
2019-04-04T07:05:53.493Z,76.65
2019-04-04T07:06:53.477Z,76.76
2019-04-04T07:07:53.468Z,77.58
2019-04-04T07:08:53.466Z,77.17
2019-04-04T07:09:53.471Z,77.68
2019-04-04T07:10:58.210Z,76.93
2019-04-04T07:11:54.430Z,76.82
2019-04-04T07:13:09.340Z,76.31
2019-04-04T07:13:54.427Z,75.66
2019-04-04T07:14:53.388Z,75.87
2019-04-04T07:16:06.304Z,75.76
2019-04-04T07:16:54.454Z,76.07
2019-04-04T07:17:53.433Z,76.17
2019-04-04T07:18:53.364Z,75.56
2019-04-04T07:19:53.339Z,75.45
2019-04-04T07:20:53.331Z,76.24
2019-04-04T07:21:53.316Z,74.70
2019-04-04T07:22:55.661Z,74.80
2019-04-04T07:23:53.330Z,75.76
2019-04-04T07:24:53.283Z,75.42
2019-04-04T07:25:53.666Z,75.56
2019-04-04T07:26:53.254Z,75.56
2019-04-04T07:27:53.270Z,75.66
2019-04-04T07:28:53.990Z,75.87
2019-04-04T07:29:56.576Z,75.52
2019-04-04T07:30:54.703Z,75.52
2019-04-04T07:31:53.202Z,74.91
2019-04-04T07:32:53.192Z,74.57
2019-04-04T07:33:53.213Z,74.05
2019-04-04T07:34:53.232Z,73.95
2019-04-04T07:35:53.161Z,74.29
2019-04-04T07:36:53.157Z,74.40
2019-04-04T07:37:57.087Z,74.60
2019-04-04T07:38:53.135Z,74.77
2019-04-04T07:39:53.133Z,75.49
2019-04-04T07:40:53.124Z,74.57
2019-04-04T07:41:53.091Z,74.02
2019-04-04T07:42:53.092Z,73.40
2019-04-04T07:43:53.108Z,73.19
2019-04-04T07:44:54.760Z,73.27
2019-04-04T07:45:55.308Z,73.40
2019-04-04T07:46:54.037Z,72.68
2019-04-04T07:47:53.028Z,72.14
2019-04-04T07:48:53.029Z,73.16
2019-04-04T07:49:53.286Z,72.20
2019-04-04T07:50:52.999Z,72.89
2019-04-04T07:51:53.004Z,72.31
2019-04-04T07:52:52.982Z,73.03
2019-04-04T07:53:52.988Z,72.82
2019-04-04T07:54:52.949Z,72.96
2019-04-04T07:55:52.938Z,72.55
2019-04-04T07:56:52.926Z,72.65
2019-04-04T07:57:52.925Z,72.92
2019-04-04T07:58:52.951Z,73.03
2019-04-04T07:59:52.899Z,72.52
2019-04-04T08:00:52.880Z,72.41
2019-04-04T08:01:52.869Z,72.28
2019-04-04T08:02:52.859Z,72.38
2019-04-04T08:03:52.878Z,71.62
2019-04-04T08:04:52.864Z,70.23
2019-04-04T08:05:52.828Z,70.64
2019-04-04T08:06:52.820Z,70.94
2019-04-04T08:07:52.809Z,71.45
2019-04-04T08:08:52.843Z,71.36
2019-04-04T08:09:52.793Z,70.94
2019-04-04T08:10:52.780Z,70.43
2019-04-04T08:11:52.776Z,70.53
2019-04-04T08:12:52.765Z,70.33
2019-04-04T08:13:52.742Z,70.67
2019-04-04T08:14:52.750Z,70.57
2019-04-04T08:15:52.719Z,71.28
2019-04-04T08:16:52.708Z,71.08
2019-04-04T08:17:52.706Z,71.18
2019-04-04T08:18:52.704Z,72.11
2019-04-04T08:19:59.545Z,72.00
2019-04-04T08:20:53.661Z,72.58
2019-04-04T08:21:52.713Z,72.58
2019-04-04T08:22:52.653Z,70.74
2019-04-04T08:23:52.648Z,71.39
2019-04-04T08:24:52.619Z,72.44
2019-04-04T08:25:52.634Z,72.75
2019-04-04T08:26:52.615Z,73.27
2019-04-04T08:27:52.588Z,72.55
2019-04-04T08:28:52.578Z,72.52
2019-04-04T08:29:52.577Z,72.82
2019-04-04T08:30:52.604Z,72.69
2019-04-04T08:31:52.590Z,71.56
2019-04-04T08:32:52.632Z,70.50
2019-04-04T08:33:52.522Z,71.49
2019-04-04T08:34:52.515Z,70.13
2019-04-04T08:36:05.116Z,70.37
2019-04-04T08:36:53.524Z,69.55
2019-04-04T08:37:52.479Z,69.24
2019-04-04T08:38:52.463Z,69.31
2019-04-04T08:39:52.545Z,69.93
2019-04-04T08:40:52.442Z,69.48
2019-04-04T08:41:52.650Z,69.38
2019-04-04T08:42:52.450Z,69.38
2019-04-04T08:43:52.410Z,67.75
2019-04-04T08:44:52.423Z,67.24
2019-04-04T08:45:52.400Z,67.54
2019-04-04T08:46:55.329Z,67.54
2019-04-04T08:47:52.381Z,68.05
2019-04-04T08:48:52.362Z,68.57
2019-04-04T08:49:52.365Z,67.75
2019-04-04T08:50:52.335Z,68.29
2019-04-04T08:51:52.326Z,68.70
2019-04-04T08:52:52.348Z,67.88
2019-04-04T08:53:52.313Z,68.19
2019-04-04T08:54:52.336Z,68.66
2019-04-04T08:55:52.283Z,68.57
2019-04-04T08:56:52.276Z,68.57
2019-04-04T08:57:52.260Z,68.49
2019-04-04T08:58:52.255Z,69.04
2019-04-04T08:59:52.234Z,68.93
2019-04-04T09:00:52.256Z,69.34
2019-04-04T09:01:52.212Z,69.48
2019-04-04T09:02:52.201Z,71.29
2019-04-04T09:03:52.199Z,70.47
2019-04-04T09:04:52.209Z,69.72
2019-04-04T09:05:52.174Z,69.42
2019-04-04T09:06:52.159Z,69.18
2019-04-04T09:07:52.174Z,70.00
2019-04-04T09:08:52.144Z,67.61
2019-04-04T09:09:52.319Z,67.21
2019-04-04T09:10:52.117Z,67.65
2019-04-04T09:11:52.165Z,68.05
2019-04-04T09:12:52.097Z,68.36
2019-04-04T09:13:52.081Z,68.36
2019-04-04T09:14:52.111Z,68.46
2019-04-04T09:15:52.157Z,68.57
2019-04-04T09:16:52.058Z,68.36
2019-04-04T09:17:52.036Z,67.75
2019-04-04T09:18:52.025Z,67.34
2019-04-04T09:19:52.020Z,68.57
2019-04-04T09:20:52.066Z,68.66
2019-04-04T09:21:52.000Z,68.16
2019-04-04T09:22:51.998Z,67.95
2019-04-04T09:23:51.969Z,68.02
2019-04-04T09:24:52.023Z,67.54
2019-04-04T09:26:04.658Z,69.18
2019-04-04T09:26:52.934Z,68.66
2019-04-04T09:27:51.936Z,68.16
2019-04-04T09:28:51.951Z,68.66
2019-04-04T09:29:51.911Z,68.16
2019-04-04T09:30:51.912Z,68.36
2019-04-04T09:31:51.883Z,67.92
2019-04-04T09:32:51.876Z,68.02
2019-04-04T09:33:51.864Z,68.23
2019-04-04T09:34:51.849Z,66.80
2019-04-04T09:35:51.921Z,66.77
2019-04-04T09:36:51.830Z,67.18
2019-04-04T09:37:51.819Z,66.66
2019-04-04T09:38:51.814Z,67.07
2019-04-04T09:39:51.795Z,67.68
2019-04-04T09:40:51.801Z,66.77
2019-04-04T09:41:51.804Z,67.00
2019-04-04T09:42:51.773Z,67.51
2019-04-04T09:43:51.771Z,68.16
2019-04-04T09:44:51.770Z,68.43
2019-04-04T09:45:51.753Z,67.71
2019-04-04T09:47:04.614Z,68.02
2019-04-04T09:47:52.721Z,68.02
2019-04-04T09:48:51.698Z,68.12
2019-04-04T09:49:51.736Z,68.74
2019-04-04T09:50:51.680Z,67.99
2019-04-04T09:51:51.679Z,66.97
2019-04-04T09:52:51.652Z,67.89
2019-04-04T09:53:53.298Z,66.86
2019-04-04T09:54:51.629Z,67.79
2019-04-04T09:55:51.619Z,67.48
2019-04-04T09:56:51.681Z,66.86
2019-04-04T09:57:51.612Z,67.38
2019-04-04T09:58:54.696Z,66.36
2019-04-04T09:59:51.582Z,66.66
2019-04-04T10:00:51.567Z,67.92
2019-04-04T10:01:51.548Z,67.18
2019-04-04T10:02:51.569Z,66.97
2019-04-04T10:03:51.538Z,67.82
2019-04-04T10:04:51.587Z,67.51
2019-04-04T10:05:51.504Z,67.07
2019-04-04T10:06:51.498Z,67.21
2019-04-04T10:07:51.596Z,67.58
2019-04-04T10:08:51.476Z,67.21
2019-04-04T10:09:51.465Z,67.30
2019-04-04T10:10:51.454Z,67.51
2019-04-04T10:11:51.451Z,67.61
2019-04-04T10:12:51.432Z,67.00
2019-04-04T10:13:51.439Z,67.41
2019-04-04T10:14:51.433Z,68.02
2019-04-04T10:15:51.398Z,67.38
2019-04-04T10:16:51.382Z,66.97
2019-04-04T10:17:51.380Z,66.94
2019-04-04T10:18:51.377Z,66.50
2019-04-04T10:19:51.377Z,65.17
2019-04-04T10:20:51.341Z,65.14
2019-04-04T10:21:51.365Z,64.97
2019-04-04T10:22:51.321Z,65.07
2019-04-04T10:23:51.305Z,64.32
2019-04-04T10:24:51.347Z,63.92
2019-04-04T10:25:51.286Z,64.32
2019-04-04T10:26:51.281Z,65.68
2019-04-04T10:27:51.273Z,65.45
2019-04-04T10:28:51.252Z,66.19
2019-04-04T10:29:51.288Z,65.25
2019-04-04T10:30:51.252Z,65.68
2019-04-04T10:31:51.243Z,65.14
2019-04-04T10:32:51.233Z,64.32
2019-04-04T10:33:51.199Z,64.43
2019-04-04T10:34:51.186Z,66.36
2019-04-04T10:35:51.199Z,65.95
2019-04-04T10:36:51.164Z,66.36
2019-04-04T10:37:51.161Z,65.34
2019-04-04T10:38:51.149Z,66.36
2019-04-04T10:39:51.140Z,66.36
2019-04-04T10:40:51.150Z,66.54
2019-04-04T10:41:51.113Z,65.31
2019-04-04T10:42:51.097Z,65.52
2019-04-04T10:43:51.088Z,65.62
2019-04-04T10:44:51.083Z,65.62
2019-04-04T10:45:51.082Z,64.37
2019-04-04T10:46:51.091Z,65.11
2019-04-04T10:47:51.040Z,65.83
2019-04-04T10:48:51.033Z,65.39
2019-04-04T10:49:51.035Z,65.69
2019-04-04T10:50:51.012Z,65.59
2019-04-04T10:51:51.021Z,64.95
2019-04-04T10:52:51.015Z,64.84
2019-04-04T10:53:50.980Z,64.84
2019-04-04T10:54:50.963Z,65.08
2019-04-04T10:55:50.953Z,65.69
2019-04-04T10:56:51.002Z,66.64
2019-04-04T10:57:50.964Z,67.15
2019-04-04T10:58:50.918Z,66.94
2019-04-04T10:59:54.557Z,65.59
2019-04-04T11:00:50.910Z,66.54
2019-04-04T11:01:50.891Z,66.50
2019-04-04T11:02:50.897Z,66.30
2019-04-04T11:03:50.901Z,65.69
2019-04-04T11:04:50.900Z,65.89
2019-04-04T11:05:50.848Z,66.20
2019-04-04T11:06:50.870Z,66.94
2019-04-04T11:07:50.847Z,66.94
2019-04-04T11:08:50.807Z,66.44
2019-04-04T11:09:50.807Z,66.71
2019-04-04T11:10:50.802Z,66.61
2019-04-04T11:11:50.788Z,66.27
2019-04-04T11:12:50.803Z,66.38
2019-04-04T11:13:50.778Z,66.38
2019-04-04T11:14:50.747Z,66.14
2019-04-04T11:15:50.731Z,65.53
2019-04-04T11:16:50.724Z,64.48
2019-04-04T11:17:50.709Z,64.79
2019-04-04T11:18:50.742Z,64.79
2019-04-04T11:19:50.695Z,64.55
2019-04-04T11:20:50.761Z,64.58
2019-04-04T11:21:50.698Z,64.79
2019-04-04T11:22:50.749Z,64.65
2019-04-04T11:23:50.646Z,64.35
2019-04-04T11:24:50.651Z,64.76
2019-04-04T11:25:50.638Z,64.15
2019-04-04T11:26:50.625Z,64.04
2019-04-04T11:27:50.662Z,64.55
2019-04-04T11:28:50.596Z,64.73
2019-04-04T11:29:50.580Z,64.42
2019-04-04T11:30:50.629Z,64.83
2019-04-04T11:31:50.571Z,64.62
2019-04-04T11:32:50.585Z,64.83
2019-04-04T11:33:50.538Z,64.70
2019-04-04T11:34:53.311Z,64.49
2019-04-04T11:35:50.522Z,64.70
2019-04-04T11:36:50.540Z,64.18
2019-04-04T11:37:50.496Z,64.09
2019-04-04T11:38:50.503Z,63.55
2019-04-04T11:39:54.927Z,62.33
2019-04-04T11:40:50.464Z,62.53
2019-04-04T11:41:50.461Z,62.84
2019-04-04T11:42:50.449Z,63.55
2019-04-04T11:43:50.448Z,62.74
2019-04-04T11:44:50.416Z,62.53
2019-04-04T11:45:50.420Z,63.28
2019-04-04T11:46:50.411Z,63.88
2019-04-04T11:47:50.409Z,62.97
2019-04-04T11:48:50.425Z,63.48
2019-04-04T11:49:50.362Z,63.58
2019-04-04T11:50:50.355Z,64.39
2019-04-04T11:51:50.347Z,64.29
2019-04-04T11:52:50.331Z,63.98
2019-04-04T11:53:50.350Z,64.29
2019-04-04T11:54:50.326Z,64.93
2019-04-04T11:55:50.314Z,64.59
2019-04-04T11:56:50.320Z,65.00
2019-04-04T11:57:50.280Z,65.41
2019-04-04T11:58:50.271Z,64.70
2019-04-04T11:59:50.302Z,63.88
2019-04-04T12:00:50.247Z,64.29
2019-04-04T12:01:50.236Z,65.30
2019-04-04T12:02:50.225Z,65.33
2019-04-04T12:03:50.261Z,64.39
2019-04-04T12:04:50.197Z,65.20
2019-04-04T12:05:50.188Z,64.90
2019-04-04T12:06:50.179Z,64.59
2019-04-04T12:07:50.172Z,64.49
2019-04-04T12:08:50.181Z,64.56
2019-04-04T12:09:50.179Z,64.36
2019-04-04T12:10:50.143Z,64.87
2019-04-04T12:11:50.127Z,64.26
2019-04-04T12:12:50.113Z,63.55
2019-04-04T12:13:50.630Z,63.52
2019-04-04T12:14:50.091Z,63.11
2019-04-04T12:15:50.103Z,63.55
2019-04-04T12:16:50.112Z,63.75
2019-04-04T12:17:50.063Z,64.03
2019-04-04T12:18:50.044Z,63.62
2019-04-04T12:19:50.033Z,63.62
2019-04-04T12:20:50.026Z,63.49
2019-04-04T12:21:50.039Z,63.08
2019-04-04T12:22:50.047Z,62.68
2019-04-04T12:23:51.412Z,63.49
2019-04-04T12:24:49.978Z,63.62
2019-04-04T12:25:49.969Z,62.48
2019-04-04T12:26:49.989Z,62.27
2019-04-04T12:27:49.956Z,62.48
2019-04-04T12:28:49.941Z,63.59
2019-04-04T12:29:49.988Z,62.45
2019-04-04T12:30:49.998Z,62.57
2019-04-04T12:31:49.906Z,62.45
2019-04-04T12:32:49.898Z,62.75
2019-04-04T12:33:49.882Z,62.45
2019-04-04T12:34:49.877Z,62.65
2019-04-04T12:35:52.295Z,62.54
2019-04-04T12:36:49.881Z,61.91
2019-04-04T12:37:49.841Z,62.11
2019-04-04T12:38:49.885Z,62.21
2019-04-04T12:39:49.835Z,61.20
2019-04-04T12:40:49.803Z,62.11
2019-04-04T12:41:49.808Z,61.71
2019-04-04T12:42:49.791Z,61.40
2019-04-04T12:43:49.920Z,61.27
2019-04-04T12:44:49.764Z,61.40
2019-04-04T12:45:49.756Z,62.08
2019-04-04T12:46:49.743Z,61.47
2019-04-04T12:47:49.726Z,61.47
2019-04-04T12:48:49.759Z,61.37
2019-04-04T12:49:49.713Z,61.04
2019-04-04T12:50:49.704Z,61.24
2019-04-04T12:51:49.687Z,61.55
2019-04-04T12:52:49.674Z,60.63